Time;durP1;ratioP1;P1;durP2;ratioP2;P2;SDS_P1;SDS_P2;PMS_P1;PMS_P2;Temp;Humidity;BMP_temperature;BMP_pressure;BME280_temperature;BME280_humidity;BME280_pressure;Samples;Min_cycle;Max_cycle;Signal;HPM_P1;HPM_P2
2023/04/18 00:00:21;;;;;;;10.82;7.35;;;;;;;12.43;55.02;102514.09;5122193;28;20040;-68
2023/04/18 00:02:50;;;;;;;11.52;7.05;;;;;;;12.43;54.82;102515.97;5123145;28;20044;-69
2023/04/18 00:05:19;;;;;;;11.43;6.32;;;;;;;12.41;54.91;102508.06;5118124;28;20397;-68
2023/04/18 00:07:47;;;;;;;11.35;6.97;;;;;;;12.41;55.06;102507.22;5122773;28;20063;-68
2023/04/18 00:10:16;;;;;;;11.90;6.85;;;;;;;12.38;54.80;102506.59;5120955;28;20075;-68
2023/04/18 00:12:44;;;;;;;10.88;6.53;;;;;;;12.38;54.72;102511.16;5119260;28;20119;-68
2023/04/18 00:15:12;;;;;;;14.25;7.22;;;;;;;12.36;54.64;102505.94;5121764;28;20123;-68
2023/04/18 00:17:40;;;;;;;10.63;6.85;;;;;;;12.34;54.34;102502.59;5118566;28;20054;-68
2023/04/18 00:20:09;;;;;;;16.38;7.38;;;;;;;12.33;54.44;102498.25;5122767;28;20139;-68
2023/04/18 00:22:41;;;;;;;9.90;6.45;;;;;;;12.32;54.23;102501.97;5123250;28;20049;-68
2023/04/18 00:25:10;;;;;;;10.48;6.95;;;;;;;12.31;54.37;102494.91;5121712;28;20065;-70
2023/04/18 00:27:39;;;;;;;9.43;6.50;;;;;;;12.30;54.33;102504.03;5117818;28;20539;-68
2023/04/18 00:30:08;;;;;;;14.55;7.03;;;;;;;12.27;54.02;102496.31;5120068;28;20089;-68
2023/04/18 00:32:36;;;;;;;11.55;6.68;;;;;;;12.26;53.69;102494.66;5113090;28;20090;-68
2023/04/18 00:35:05;;;;;;;11.82;6.75;;;;;;;12.25;53.55;102497.53;5116253;28;20154;-68
2023/04/18 00:37:33;;;;;;;12.38;7.25;;;;;;;12.23;53.67;102499.59;5122617;28;20473;-68
2023/04/18 00:40:04;;;;;;;12.45;6.93;;;;;;;12.22;53.63;102497.94;5118077;28;20054;-70
2023/04/18 00:42:32;;;;;;;11.50;7.07;;;;;;;12.19;52.81;102495.63;5121031;28;21570;-69
2023/04/18 00:45:00;;;;;;;11.38;6.63;;;;;;;12.16;52.58;102487.91;5117224;28;20051;-68
2023/04/18 00:47:28;;;;;;;9.40;6.85;;;;;;;12.13;52.43;102494.56;5120569;28;20044;-68
2023/04/18 00:49:56;;;;;;;11.27;6.65;;;;;;;12.12;52.02;102487.50;5122470;28;20058;-68
2023/04/18 00:52:26;;;;;;;9.00;6.93;;;;;;;12.13;52.23;102499.09;5121677;28;20056;-68
2023/04/18 00:54:54;;;;;;;13.05;7.00;;;;;;;12.10;52.25;102497.63;5120485;28;20608;-68
2023/04/18 00:57:24;;;;;;;13.40;6.50;;;;;;;12.10;51.98;102503.03;5119152;28;20047;-68
2023/04/18 00:59:52;;;;;;;9.02;6.07;;;;;;;12.09;52.23;102492.44;5121446;28;20130;-68
2023/04/18 01:02:20;;;;;;;11.38;5.90;;;;;;;12.08;52.04;102494.28;5122367;28;20079;-68
2023/04/18 01:04:48;;;;;;;9.07;6.20;;;;;;;12.07;51.91;102492.63;5119181;28;20055;-68
2023/04/18 01:07:16;;;;;;;8.68;6.07;;;;;;;12.05;52.60;102489.28;5121529;28;20062;-68
2023/04/18 01:09:44;;;;;;;10.70;5.72;;;;;;;11.96;52.45;102475.09;5110712;28;20032;-68
2023/04/18 01:12:12;;;;;;;9.82;6.07;;;;;;;12.03;52.63;102491.34;5121995;28;20078;-69
2023/04/18 01:14:42;;;;;;;10.48;5.57;;;;;;;12.03;52.62;102491.34;5121022;28;20116;-68
2023/04/18 01:17:12;;;;;;;8.55;6.10;;;;;;;12.00;52.76;102489.84;5118145;28;20086;-68
2023/04/18 01:19:40;;;;;;;11.90;7.05;;;;;;;11.98;52.50;102491.91;5117679;28;20292;-68
2023/04/18 01:22:08;;;;;;;9.32;6.70;;;;;;;11.98;52.62;102488.38;5115492;28;20062;-67
2023/04/18 01:24:38;;;;;;;11.27;5.90;;;;;;;11.94;52.93;102490.63;5121644;28;20083;-68
2023/04/18 01:27:05;;;;;;;12.43;6.70;;;;;;;11.91;52.87;102485.63;5118356;28;20058;-68
2023/04/18 01:29:33;;;;;;;11.05;6.68;;;;;;;11.91;52.90;102482.91;5119346;28;20055;-68
2023/04/18 01:32:02;;;;;;;9.85;6.18;;;;;;;11.90;53.04;102483.94;5121167;28;20098;-68
2023/04/18 01:34:30;;;;;;;9.27;6.78;;;;;;;11.88;52.95;102472.53;5118511;28;20107;-68
2023/04/18 01:36:58;;;;;;;12.30;7.32;;;;;;;11.87;52.96;102476.25;5120697;28;20624;-68
2023/04/18 01:39:25;;;;;;;10.65;7.07;;;;;;;11.87;52.62;102486.19;5119295;28;20086;-69
2023/04/18 01:41:54;;;;;;;9.55;6.15;;;;;;;11.87;52.72;102467.31;5120642;28;20078;-69
2023/04/18 01:44:22;;;;;;;15.52;7.13;;;;;;;11.84;52.72;102471.25;5120892;28;20078;-69
2023/04/18 01:46:50;;;;;;;9.85;6.20;;;;;;;11.84;52.78;102465.84;5115454;28;20080;-69
2023/04/18 01:49:18;;;;;;;10.73;6.93;;;;;;;11.83;51.87;102468.72;5120257;28;20070;-68
2023/04/18 01:51:46;;;;;;;12.90;6.93;;;;;;;11.81;52.46;102462.69;5119980;28;20071;-68
2023/04/18 01:54:13;;;;;;;12.05;7.45;;;;;;;11.70;52.13;102445.16;5118751;28;20377;-69
2023/04/18 01:56:42;;;;;;;10.93;6.95;;;;;;;11.78;52.31;102460.38;5112083;28;20242;-70
2023/04/18 01:59:11;;;;;;;11.52;7.03;;;;;;;11.76;52.05;102462.41;5120152;28;20055;-68
2023/04/18 02:01:39;;;;;;;10.23;6.57;;;;;;;11.70;52.10;102459.44;5114036;28;20071;-70
2023/04/18 02:04:06;;;;;;;10.93;6.30;;;;;;;11.75;51.81;102461.56;5121043;28;20048;-69
2023/04/18 02:06:34;;;;;;;12.07;6.90;;;;;;;11.74;52.21;102463.44;5121422;28;20039;-69
2023/04/18 02:09:02;;;;;;;10.43;6.70;;;;;;;11.74;51.77;102459.91;5119653;28;20074;-68
2023/04/18 02:11:30;;;;;;;16.33;7.25;;;;;;;11.71;51.93;102463.81;5113009;28;20075;-68
2023/04/18 02:13:58;;;;;;;8.98;6.63;;;;;;;11.69;51.78;102467.72;5114085;28;20067;-69
2023/04/18 02:16:27;;;;;;;11.77;6.85;;;;;;;11.65;51.43;102463.72;5117237;28;20074;-69
2023/04/18 02:18:55;;;;;;;10.30;6.45;;;;;;;11.62;51.82;102467.63;5121208;28;20061;-68
2023/04/18 02:21:23;;;;;;;9.65;6.53;;;;;;;11.60;51.43;102474.22;5121303;28;20050;-68
2023/04/18 02:23:50;;;;;;;11.60;7.30;;;;;;;11.57;51.34;102464.66;5120909;28;20131;-69
2023/04/18 02:26:18;;;;;;;15.45;7.05;;;;;;;11.58;51.31;102471.72;5115616;28;20109;-68
2023/04/18 02:28:46;;;;;;;11.63;6.82;;;;;;;11.55;51.28;102463.19;5121184;28;20055;-69
2023/04/18 02:31:14;;;;;;;14.15;7.32;;;;;;;11.54;51.76;102462.34;5119671;28;20086;-69
2023/04/18 02:33:46;;;;;;;9.85;6.55;;;;;;;11.54;51.83;102464.22;5103204;28;20463;-68
2023/04/18 02:36:13;;;;;;;13.75;6.25;;;;;;;11.53;51.49;102459.84;5120266;28;20126;-69
2023/04/18 02:38:41;;;;;;;9.15;7.03;;;;;;;11.49;51.34;102459.41;5112867;28;20048;-69
2023/04/18 02:41:13;;;;;;;11.35;6.45;;;;;;;11.48;51.90;102459.59;5120812;28;20352;-69
2023/04/18 02:43:41;;;;;;;9.85;6.57;;;;;;;11.46;51.59;102464.31;5109483;28;20099;-69
2023/04/18 02:46:09;;;;;;;14.77;6.97;;;;;;;11.45;51.29;102463.50;5118796;28;20062;-68
2023/04/18 02:48:37;;;;;;;11.55;6.50;;;;;;;11.44;51.29;102466.38;5120026;28;20429;-69
2023/04/18 02:51:07;;;;;;;9.52;6.45;;;;;;;11.39;51.31;102458.84;5120797;28;20126;-68
2023/04/18 02:53:35;;;;;;;10.98;6.60;;;;;;;11.41;51.49;102464.88;5119948;28;20119;-68
2023/04/18 02:56:03;;;;;;;9.18;6.03;;;;;;;11.40;51.41;102452.44;5114879;28;20055;-69
2023/04/18 02:58:33;;;;;;;10.38;6.40;;;;;;;11.38;51.44;102465.25;5116895;28;20055;-69
2023/04/18 03:01:01;;;;;;;10.35;6.53;;;;;;;11.35;51.16;102465.63;5119108;28;20047;-68
2023/04/18 03:03:29;;;;;;;15.15;7.35;;;;;;;11.34;51.59;102461.28;5118493;28;20048;-68
2023/04/18 03:05:56;;;;;;;10.23;6.05;;;;;;;11.32;51.44;102455.25;5116079;28;20050;-69
2023/04/18 03:08:26;;;;;;;9.82;6.30;;;;;;;11.31;51.51;102462.47;5122987;28;20131;-69
2023/04/18 03:10:54;;;;;;;9.63;5.78;;;;;;;11.31;51.50;102458.97;5122852;28;20046;-69
2023/04/18 03:13:23;;;;;;;9.38;5.93;;;;;;;11.29;51.71;102455.63;5122585;28;20043;-68
2023/04/18 03:15:50;;;;;;;8.95;6.28;;;;;;;11.29;51.51;102461.00;5123405;28;20408;-68
2023/04/18 03:18:18;;;;;;;15.98;5.55;;;;;;;11.27;51.66;102453.09;5122869;28;20109;-68
2023/04/18 03:20:46;;;;;;;8.95;6.20;;;;;;;11.26;51.46;102454.13;5113532;28;20035;-68
2023/04/18 03:23:14;;;;;;;10.77;6.68;;;;;;;11.18;51.40;102446.16;5124556;28;20048;-69
2023/04/18 03:25:43;;;;;;;8.70;6.13;;;;;;;11.25;51.53;102457.00;5124217;28;20074;-69
2023/04/18 03:28:10;;;;;;;8.55;5.88;;;;;;;11.24;51.41;102460.72;5117799;28;20073;-68
2023/04/18 03:30:38;;;;;;;10.07;6.70;;;;;;;11.22;51.07;102460.06;5121759;28;20074;-69
2023/04/18 03:33:06;;;;;;;11.10;6.72;;;;;;;11.18;51.28;102461.47;5115130;28;20136;-68
2023/04/18 03:35:34;;;;;;;12.57;7.18;;;;;;;11.19;51.39;102468.53;5122884;28;20075;-69
2023/04/18 03:38:02;;;;;;;9.90;6.25;;;;;;;11.18;51.38;102467.69;5111182;28;20119;-69
2023/04/18 03:40:29;;;;;;;9.40;6.53;;;;;;;11.19;51.32;102468.53;5121931;28;20124;-68
2023/04/18 03:42:59;;;;;;;11.93;7.15;;;;;;;11.17;51.29;102465.19;5123895;28;20047;-69
2023/04/18 03:45:27;;;;;;;9.90;6.63;;;;;;;11.15;51.52;102459.97;5123609;28;20398;-68
2023/04/18 03:47:55;;;;;;;11.30;5.90;;;;;;;11.14;51.42;102466.38;5122049;28;20079;-69
2023/04/18 03:50:24;;;;;;;9.57;6.53;;;;;;;11.13;51.17;102466.56;5123972;28;20043;-68
2023/04/18 03:52:52;;;;;;;11.13;6.88;;;;;;;11.11;51.26;102463.22;5122799;28;20322;-68
2023/04/18 03:55:20;;;;;;;8.35;6.40;;;;;;;11.07;51.36;102458.22;5123172;28;20098;-69
2023/04/18 03:57:48;;;;;;;10.27;6.50;;;;;;;11.04;51.74;102463.97;5121483;28;20044;-70
2023/04/18 04:00:18;;;;;;;9.27;6.25;;;;;;;11.00;51.60;102459.16;5122835;28;20039;-69
2023/04/18 04:02:45;;;;;;;12.48;6.40;;;;;;;11.01;51.17;102464.34;5110884;28;20121;-69
2023/04/18 04:05:13;;;;;;;15.10;6.22;;;;;;;11.01;51.68;102458.13;5124673;28;20456;-69
2023/04/18 04:07:41;;;;;;;8.32;5.47;;;;;;;11.00;51.62;102456.47;5124148;28;20054;-68
2023/04/18 04:10:09;;;;;;;8.90;6.30;;;;;;;10.98;51.63;102456.66;5124823;28;20146;-70
2023/04/18 04:12:37;;;;;;;9.50;5.93;;;;;;;10.97;51.72;102464.91;5123887;28;20330;-69
2023/04/18 04:15:06;;;;;;;11.07;6.55;;;;;;;10.96;51.47;102463.22;5120350;28;20073;-68
2023/04/18 04:17:35;;;;;;;10.43;6.53;;;;;;;10.92;51.23;102460.06;5120134;28;20208;-69
2023/04/18 04:20:04;;;;;;;9.27;6.20;;;;;;;10.90;51.51;102459.44;5122158;28;20054;-69
2023/04/18 04:22:33;;;;;;;9.70;6.60;;;;;;;10.89;51.80;102463.13;5120678;28;20083;-68
2023/04/18 04:25:01;;;;;;;10.18;6.25;;;;;;;10.87;51.48;102465.16;5121260;28;20079;-68
2023/04/18 04:27:29;;;;;;;10.38;6.88;;;;;;;10.84;51.64;102475.47;5121225;28;20039;-68
2023/04/18 04:29:56;;;;;;;12.32;6.82;;;;;;;10.82;51.70;102477.50;5121711;28;20051;-69
2023/04/18 04:32:26;;;;;;;9.48;6.35;;;;;;;10.81;51.95;102465.91;5122371;28;20583;-68
2023/04/18 04:34:55;;;;;;;9.85;6.43;;;;;;;10.79;51.63;102464.41;5120499;28;20105;-68
2023/04/18 04:37:23;;;;;;;9.63;6.53;;;;;;;10.78;51.74;102471.66;5117730;28;20128;-67
2023/04/18 04:39:51;;;;;;;8.70;5.88;;;;;;;10.76;51.76;102471.00;5122391;28;20116;-69
2023/04/18 04:42:18;;;;;;;8.27;5.85;;;;;;;10.74;51.84;102463.13;5121534;28;20074;-69
2023/04/18 04:44:46;;;;;;;10.32;5.90;;;;;;;10.72;51.60;102470.53;5120080;28;20046;-68
2023/04/18 04:47:14;;;;;;;9.75;6.07;;;;;;;10.73;51.86;102472.19;5119244;28;20051;-68
2023/04/18 04:49:42;;;;;;;9.00;6.00;;;;;;;10.71;51.95;102468.84;5118411;28;20053;-69
2023/04/18 04:52:11;;;;;;;9.57;6.07;;;;;;;10.69;51.90;102470.06;5114446;28;20130;-68
2023/04/18 04:54:39;;;;;;;11.70;6.10;;;;;;;10.68;52.01;102471.91;5116859;28;20528;-67
2023/04/18 04:57:06;;;;;;;11.63;5.20;;;;;;;10.67;51.97;102472.94;5122288;28;20057;-69
2023/04/18 04:59:34;;;;;;;9.98;6.13;;;;;;;10.66;51.91;102475.81;5116862;28;20051;-67
2023/04/18 05:02:02;;;;;;;11.45;6.43;;;;;;;10.65;51.94;102474.97;5121858;28;20044;-69
2023/04/18 05:04:30;;;;;;;8.50;5.80;;;;;;;10.65;51.85;102482.19;5121801;28;20055;-68
2023/04/18 05:06:58;;;;;;;8.20;6.03;;;;;;;10.62;51.76;102480.72;5121147;28;20048;-68
2023/04/18 05:09:27;;;;;;;8.45;5.68;;;;;;;10.59;51.84;102480.25;5116470;28;20043;-68
2023/04/18 05:11:55;;;;;;;9.57;6.40;;;;;;;10.57;51.92;102477.72;5122056;28;20082;-69
2023/04/18 05:14:23;;;;;;;8.90;5.93;;;;;;;10.56;51.98;102484.13;5119266;28;20101;-66
2023/04/18 05:16:50;;;;;;;12.10;5.75;;;;;;;10.56;52.01;102485.97;5120143;28;20061;-67
2023/04/18 05:19:18;;;;;;;8.68;5.75;;;;;;;10.54;51.80;102490.69;5111082;28;20093;-69
2023/04/18 05:21:46;;;;;;;13.90;6.78;;;;;;;10.54;51.57;102490.69;5113384;28;20051;-69
2023/04/18 05:24:14;;;;;;;9.13;6.07;;;;;;;10.53;51.81;102494.41;5118673;28;20044;-69
2023/04/18 05:26:43;;;;;;;9.32;5.53;;;;;;;10.52;51.91;102490.03;5111897;28;20051;-68
2023/04/18 05:29:11;;;;;;;9.35;6.25;;;;;;;10.51;51.72;102483.00;5114321;28;20138;-69
2023/04/18 05:31:39;;;;;;;8.25;5.53;;;;;;;10.49;51.54;102498.47;5116585;28;20086;-70
2023/04/18 05:34:06;;;;;;;10.20;6.22;;;;;;;10.50;52.11;102498.28;5116284;28;20082;-66
2023/04/18 05:36:34;;;;;;;8.73;5.93;;;;;;;10.50;51.93;102497.44;5116477;28;20567;-66
2023/04/18 05:39:03;;;;;;;11.55;6.65;;;;;;;10.49;51.97;102502.00;5119731;28;20075;-67
2023/04/18 05:41:30;;;;;;;9.70;5.85;;;;;;;10.47;51.94;102505.88;4408496;28;10000674;-64
2023/04/18 05:43:59;;;;;;;8.77;6.00;;;;;;;10.43;51.52;102508.94;5115788;28;20086;-64
2023/04/18 05:46:32;;;;;;;11.20;6.32;;;;;;;10.43;52.24;102510.78;4752965;28;10000297;-66
2023/04/18 05:49:00;;;;;;;7.75;5.45;;;;;;;10.42;51.81;102507.25;5113228;28;20404;-66
2023/04/18 05:51:28;;;;;;;8.88;5.80;;;;;;;10.44;51.90;102521.34;5108330;28;20047;-67
2023/04/18 05:53:56;;;;;;;9.38;6.13;;;;;;;10.46;52.02;102520.34;5108620;28;20044;-65
2023/04/18 05:56:24;;;;;;;11.05;5.90;;;;;;;10.45;52.01;102516.81;5113780;28;20111;-65
2023/04/18 05:58:51;;;;;;;12.65;6.28;;;;;;;10.45;51.80;102522.19;5116898;28;20051;-63
2023/04/18 06:01:21;;;;;;;10.93;6.35;;;;;;;10.41;51.91;102521.72;5113156;28;20058;-69
2023/04/18 06:03:49;;;;;;;14.95;6.28;;;;;;;10.17;52.40;102527.25;5107936;28;20135;-65
2023/04/18 06:06:17;;;;;;;11.25;6.63;;;;;;;9.89;53.05;102529.59;5108048;28;20057;-68
2023/04/18 06:08:45;;;;;;;12.93;6.68;;;;;;;9.92;53.44;102523.88;5125189;27;20110;-69
2023/04/18 06:11:14;;;;;;;11.00;6.90;;;;;;;10.01;53.22;102532.72;5116713;28;20051;-69
2023/04/18 06:13:43;;;;;;;11.27;7.40;;;;;;;10.09;52.68;102521.94;5112155;28;20102;-72
2023/04/18 06:16:11;;;;;;;9.10;6.30;;;;;;;10.14;52.94;102521.41;5115853;28;20075;-68
2023/04/18 06:18:40;;;;;;;11.07;6.13;;;;;;;10.20;52.53;102520.72;5118182;28;20111;-66
2023/04/18 06:21:08;;;;;;;8.98;6.00;;;;;;;10.24;52.38;102522.03;5117883;28;20089;-67
2023/04/18 06:23:37;;;;;;;9.52;6.40;;;;;;;10.22;52.82;102530.28;5119800;28;20050;-67
2023/04/18 06:26:06;;;;;;;9.60;5.82;;;;;;;10.25;52.88;102523.72;5117831;28;20082;-67
2023/04/18 06:28:33;;;;;;;11.85;6.05;;;;;;;10.27;52.58;102521.69;5116910;28;20051;-67
2023/04/18 06:31:01;;;;;;;9.32;6.07;;;;;;;10.28;52.51;102537.63;5114536;28;20051;-67
2023/04/18 06:33:29;;;;;;;15.82;7.35;;;;;;;10.30;52.58;102542.81;5097949;28;20051;-67
2023/04/18 06:35:58;;;;;;;8.70;5.82;;;;;;;10.34;52.88;102538.75;5093423;28;20056;-68
2023/04/18 06:38:26;;;;;;;15.90;9.32;;;;;;;10.33;52.90;102535.25;5093124;28;20052;-68
2023/04/18 06:40:54;;;;;;;10.32;6.32;;;;;;;10.38;52.94;102540.91;5092264;28;20048;-67
2023/04/18 06:43:22;;;;;;;9.93;6.60;;;;;;;10.37;52.87;102530.34;5101317;28;20040;-68
2023/04/18 06:45:50;;;;;;;11.60;6.35;;;;;;;10.46;52.93;102541.84;5102351;28;20107;-67
2023/04/18 06:48:17;;;;;;;11.75;6.15;;;;;;;10.50;52.75;102543.16;5101189;28;20468;-68
2023/04/18 06:50:45;;;;;;;9.48;6.03;;;;;;;10.50;52.65;102543.16;5101164;28;20284;-67
2023/04/18 06:53:14;;;;;;;10.52;5.97;;;;;;;10.53;52.68;102546.31;5102629;28;20127;-67
2023/04/18 06:55:42;;;;;;;8.52;5.55;;;;;;;10.56;52.96;102547.81;5101311;28;20114;-67
2023/04/18 06:58:12;;;;;;;11.48;5.60;;;;;;;10.57;53.02;102547.63;5100230;28;20045;-67
2023/04/18 07:00:40;;;;;;;10.50;5.90;;;;;;;10.57;53.27;102557.53;5101169;28;20527;-67
2023/04/18 07:03:11;;;;;;;9.90;5.40;;;;;;;10.55;53.10;102552.34;5098875;28;20086;-67
2023/04/18 07:05:40;;;;;;;12.18;6.20;;;;;;;10.54;53.15;102556.06;5100978;28;20582;-67
2023/04/18 07:08:08;;;;;;;8.65;5.50;;;;;;;10.50;53.31;102551.22;5100184;28;20054;-66
2023/04/18 07:10:37;;;;;;;8.18;5.35;;;;;;;10.53;53.31;102557.06;5102265;28;20075;-67
2023/04/18 07:13:05;;;;;;;8.18;5.35;;;;;;;10.54;53.45;102557.91;5099726;28;20048;-67
2023/04/18 07:15:34;;;;;;;8.95;5.25;;;;;;;10.53;53.75;102551.69;5102185;28;20111;-67
2023/04/18 07:18:02;;;;;;;7.03;5.10;;;;;;;10.53;53.80;102558.94;5098820;28;20047;-67
2023/04/18 07:20:30;;;;;;;7.13;4.90;;;;;;;10.55;53.77;102554.19;5101094;28;20052;-68
2023/04/18 07:22:57;;;;;;;8.60;5.15;;;;;;;10.57;53.76;102560.22;5100807;28;20489;-67
2023/04/18 07:25:25;;;;;;;9.32;5.80;;;;;;;10.58;53.73;102567.28;5102256;28;20044;-67
2023/04/18 07:27:54;;;;;;;7.60;5.53;;;;;;;10.55;54.11;102567.66;5100833;28;20080;-67
2023/04/18 07:30:22;;;;;;;8.10;4.95;;;;;;;10.55;54.29;102567.66;5095337;28;20441;-67
2023/04/18 07:32:50;;;;;;;11.55;6.95;;;;;;;10.56;53.96;102572.84;5117747;28;20315;-66
2023/04/18 07:35:18;;;;;;;9.82;5.63;;;;;;;10.59;54.14;102567.09;5121551;28;20075;-67
2023/04/18 07:37:46;;;;;;;9.82;5.88;;;;;;;10.59;54.21;102568.97;5122135;28;20067;-66
2023/04/18 07:40:15;;;;;;;10.80;6.25;;;;;;;10.57;54.26;102565.63;5120226;28;20047;-67
2023/04/18 07:42:43;;;;;;;9.13;6.15;;;;;;;10.56;54.41;102572.00;5118321;28;20048;-67
2023/04/18 07:45:12;;;;;;;11.13;6.22;;;;;;;10.55;54.55;102575.72;5121962;28;20070;-67
2023/04/18 07:47:40;;;;;;;8.55;5.60;;;;;;;10.56;54.48;102577.38;5118323;28;20107;-66
2023/04/18 07:50:09;;;;;;;11.35;6.07;;;;;;;10.56;54.55;102577.38;5119100;28;20051;-67
2023/04/18 07:52:36;;;;;;;8.75;5.38;;;;;;;10.58;54.73;102573.50;5119084;28;20120;-67
2023/04/18 07:55:07;;;;;;;8.23;5.78;;;;;;;10.58;54.81;102578.88;5122074;28;20059;-68
2023/04/18 07:57:35;;;;;;;9.82;5.20;;;;;;;10.64;54.84;102577.31;5119446;28;20119;-65
2023/04/18 08:00:04;;;;;;;9.00;4.97;;;;;;;10.65;54.81;102585.22;5118223;28;20055;-66
2023/04/18 08:02:33;;;;;;;7.38;4.72;;;;;;;10.67;54.95;102582.34;5121056;28;20035;-67
2023/04/18 08:05:01;;;;;;;7.28;4.88;;;;;;;10.76;54.81;102582.09;5121452;28;20050;-67
2023/04/18 08:07:29;;;;;;;8.40;5.50;;;;;;;10.96;54.28;102584.28;5120605;28;20044;-67
2023/04/18 08:09:57;;;;;;;8.38;5.15;;;;;;;11.21;53.72;102579.50;5120635;28;20566;-67
2023/04/18 08:12:25;;;;;;;10.38;5.90;;;;;;;11.45;53.02;102581.94;5119519;28;20058;-66
2023/04/18 08:14:52;;;;;;;9.65;6.03;;;;;;;11.66;52.60;102584.72;5120806;28;20103;-66
2023/04/18 08:17:20;;;;;;;9.30;5.32;;;;;;;11.86;52.17;102578.81;5118354;28;20464;-66
2023/04/18 08:19:49;;;;;;;8.43;5.43;;;;;;;12.07;51.52;102578.03;5119173;28;20044;-67
2023/04/18 08:22:17;;;;;;;8.68;5.22;;;;;;;12.23;50.96;102575.91;5119498;28;20120;-67
2023/04/18 08:24:45;;;;;;;6.10;4.72;;;;;;;12.42;50.84;102585.22;5121675;28;20048;-66
2023/04/18 08:27:30;;;;;;;10.00;4.93;;;;;;;12.57;50.41;102586.00;5116756;28;20052;-66
2023/04/18 08:29:58;;;;;;;7.13;5.32;;;;;;;12.67;50.24;102569.50;5119516;28;20056;-66
2023/04/18 08:32:26;;;;;;;9.15;5.30;;;;;;;12.80;49.74;102579.59;5102984;28;20048;-66
2023/04/18 08:34:56;;;;;;;21.35;5.47;;;;;;;12.80;49.51;102569.63;5100630;28;20036;-66
2023/04/18 08:37:23;;;;;;;6.25;4.75;;;;;;;12.84;49.70;102579.00;5101098;28;20048;-66
2023/04/18 08:39:51;;;;;;;10.23;5.90;;;;;;;12.83;50.01;102574.63;5101704;28;20082;-66
2023/04/18 08:42:20;;;;;;;8.20;5.97;;;;;;;12.77;50.03;102577.28;5092632;28;20055;-66
2023/04/18 08:44:48;;;;;;;9.52;5.32;;;;;;;12.58;50.79;102570.66;5101446;28;20056;-67
2023/04/18 08:47:16;;;;;;;12.50;5.63;;;;;;;12.41;51.19;102577.34;5101152;28;20040;-67
2023/04/18 08:49:44;;;;;;;13.27;5.70;;;;;;;12.24;51.68;102577.56;5098710;28;20090;-66
2023/04/18 08:52:15;;;;;;;10.30;5.20;;;;;;;12.11;51.94;102573.94;5091199;28;20131;-67
2023/04/18 08:54:45;;;;;;;7.75;5.80;;;;;;;11.98;52.49;102567.34;5098460;28;20048;-66
2023/04/18 08:57:16;;;;;;;5.22;4.15;;;;;;;11.93;52.87;102585.94;5097329;28;20386;-67
2023/04/18 08:59:45;;;;;;;11.18;5.43;;;;;;;11.85;53.13;102574.44;5097680;28;20048;-66
2023/04/18 09:02:18;;;;;;;10.90;5.85;;;;;;;11.79;53.49;102577.88;5099531;28;20048;-67
2023/04/18 09:04:51;;;;;;;12.43;4.93;;;;;;;11.76;53.42;102564.75;5097754;28;20040;-67
2023/04/18 09:07:27;;;;;;;10.15;5.65;;;;;;;11.73;53.53;102566.81;5100539;28;20072;-66
2023/04/18 09:09:56;;;;;;;8.73;5.47;;;;;;;11.68;53.62;102563.84;5099766;28;20369;-66
2023/04/18 09:12:25;;;;;;;9.52;5.10;;;;;;;11.66;53.93;102555.09;5097856;28;20039;-66
2023/04/18 09:14:55;;;;;;;11.70;5.75;;;;;;;11.65;54.18;102558.81;5100548;28;20040;-66
2023/04/18 09:17:34;;;;;;;9.30;6.18;;;;;;;11.61;54.13;102557.53;5097058;28;20058;-66
2023/04/18 09:20:05;;;;;;;12.80;6.10;;;;;;;11.62;54.31;102567.28;5099479;28;20317;-66
2023/04/18 09:22:49;;;;;;;8.15;6.10;;;;;;;11.65;54.47;102569.59;5097231;28;20058;-66
2023/04/18 09:25:28;;;;;;;11.00;6.40;;;;;;;11.67;54.46;102566.72;5098850;28;20123;-66
2023/04/18 09:27:59;;;;;;;10.45;6.18;;;;;;;11.64;54.20;102556.31;5096296;28;20047;-66
2023/04/18 09:30:36;;;;;;;13.93;6.50;;;;;;;11.57;54.16;102553.53;5095726;28;20124;-66
2023/04/18 09:33:06;;;;;;;8.52;6.28;;;;;;;11.61;54.23;102562.06;5116799;28;20138;-66
2023/04/18 09:35:34;;;;;;;10.05;6.53;;;;;;;11.60;54.29;102555.03;5118384;28;20095;-66
2023/04/18 09:38:04;;;;;;;11.07;6.32;;;;;;;11.59;54.18;102561.44;5118835;28;20104;-65
2023/04/18 09:40:32;;;;;;;9.02;6.45;;;;;;;11.55;54.30;102549.34;5117613;28;20040;-66
2023/04/18 09:43:00;;;;;;;7.57;5.78;;;;;;;11.59;54.60;102553.34;5119144;28;20059;-66
2023/04/18 09:45:28;;;;;;;10.68;6.68;;;;;;;11.59;54.50;102551.50;5119605;28;20105;-66
2023/04/18 09:47:56;;;;;;;12.18;6.50;;;;;;;11.59;54.25;102542.56;5118587;28;20192;-66
2023/04/18 09:50:24;;;;;;;11.18;6.28;;;;;;;11.60;54.48;102550.47;5115539;28;20044;-66
2023/04/18 09:52:52;;;;;;;10.05;6.72;;;;;;;11.60;54.60;102539.69;5117081;28;20043;-66
2023/04/18 09:55:21;;;;;;;10.70;5.53;;;;;;;11.71;54.56;102550.00;5118221;28;20070;-66
2023/04/18 09:57:52;;;;;;;10.40;5.28;;;;;;;11.66;53.97;102547.03;5115060;28;20068;-65
2023/04/18 10:00:24;;;;;;;10.05;5.97;;;;;;;11.65;54.04;102541.81;5117797;28;20058;-66
2023/04/18 10:02:56;;;;;;;12.32;6.38;;;;;;;11.64;54.15;102549.06;5116510;28;20126;-65
2023/04/18 10:05:26;;;;;;;9.23;6.10;;;;;;;11.63;54.44;102546.56;5119215;28;20051;-66
2023/04/18 10:07:55;;;;;;;11.38;5.40;;;;;;;11.64;54.02;102556.31;5118319;28;20403;-65
2023/04/18 10:10:24;;;;;;;8.55;5.55;;;;;;;11.64;54.07;102551.75;5119397;28;20044;-65
2023/04/18 10:12:54;;;;;;;12.20;5.25;;;;;;;11.64;53.73;102556.31;5117122;28;20101;-66
2023/04/18 10:15:23;;;;;;;7.40;4.90;;;;;;;11.64;53.71;102561.69;5119311;28;20503;-65
2023/04/18 10:17:54;;;;;;;14.23;5.65;;;;;;;11.64;53.81;102556.31;5117787;28;20047;-66
2023/04/18 10:20:33;;;;;;;7.80;4.70;;;;;;;11.64;53.99;102559.00;5117159;28;20524;-66
2023/04/18 10:23:36;;;;;;;6.05;4.30;;;;;;;11.69;54.09;102560.13;5118883;28;20051;-66
2023/04/18 10:26:05;;;;;;;6.50;3.80;;;;;;;11.68;54.12;102554.91;5118480;28;20067;-66
2023/04/18 10:28:55;;;;;;;7.15;4.05;;;;;;;11.67;53.89;102564.03;5112756;28;20054;-66
2023/04/18 10:31:24;;;;;;;8.93;4.65;;;;;;;11.66;53.71;102557.81;5116064;28;20061;-66
2023/04/18 10:33:54;;;;;;;8.10;5.00;;;;;;;11.66;53.40;102557.81;5116397;28;20051;-66
2023/04/18 10:36:26;;;;;;;8.82;4.72;;;;;;;11.66;53.71;102555.09;5119895;28;20058;-66
2023/04/18 10:38:59;;;;;;;5.72;4.65;;;;;;;11.68;53.74;102557.63;5117758;28;20101;-66
2023/04/18 10:41:29;;;;;;;6.57;4.80;;;;;;;11.66;53.70;102547.03;5115210;28;21162;-66
2023/04/18 10:44:27;;;;;;;6.88;4.88;;;;;;;11.62;53.75;102542.19;5117352;28;20062;-65
2023/04/18 10:47:21;;;;;;;;;;;;;;;11.70;53.58;102550.19;5120197;28;20058;-66
2023/04/18 10:49:59;;;;;;;6.65;4.70;;;;;;;11.70;53.84;102551.03;5017046;28;19940;-66
2023/04/18 10:52:29;;;;;;;6.60;4.47;;;;;;;11.72;53.98;102553.53;5015360;28;20117;-66
2023/04/18 10:55:16;;;;;;;6.35;4.88;;;;;;;11.75;54.07;102558.53;5014900;28;20061;-65
2023/04/18 10:57:47;;;;;;;6.20;4.25;;;;;;;11.78;54.13;102546.59;5013979;28;20050;-65
2023/04/18 11:00:16;;;;;;;7.07;4.95;;;;;;;11.80;54.12;102558.00;5012848;28;20497;-65
2023/04/18 11:02:54;;;;;;;7.72;4.93;;;;;;;11.89;53.28;102544.25;5015876;28;20120;-67
2023/04/18 11:05:25;;;;;;;8.23;5.38;;;;;;;12.08;52.92;102555.44;5014448;28;20050;-72
2023/04/18 11:07:53;;;;;;;9.63;6.85;;;;;;;12.25;52.46;102544.19;5013638;28;20077;-70
2023/04/18 11:10:22;;;;;;;9.02;5.95;;;;;;;12.50;51.77;102544.66;5015623;28;20786;-68
2023/04/18 11:12:52;;;;;;;10.77;5.30;;;;;;;12.67;51.70;102540.66;5011155;28;20052;-71
2023/04/18 11:15:21;;;;;;;6.60;4.75;;;;;;;12.87;51.00;102542.69;5013953;28;20034;-70
2023/04/18 11:17:57;;;;;;;7.28;4.50;;;;;;;13.09;50.32;102544.31;5015351;28;20080;-71
2023/04/18 11:20:25;;;;;;;7.07;5.03;;;;;;;13.24;50.07;102542.38;5008339;28;20046;-70
2023/04/18 11:22:56;;;;;;;6.70;4.68;;;;;;;13.26;50.22;102540.31;5016194;28;20046;-73
2023/04/18 11:25:25;;;;;;;6.20;4.57;;;;;;;13.18;50.14;102536.94;5050594;28;20040;-71
2023/04/18 11:27:58;;;;;;;8.32;5.07;;;;;;;13.03;50.79;102543.25;5118586;28;20044;-71
2023/04/18 11:30:27;;;;;;;7.82;5.47;;;;;;;12.89;51.24;102538.78;5123680;28;20052;-71